Mora, MN (55051)

12:05 AM CST on November 28, 2014 (GMT -0600)
RAWS MORA MN US | Change Station
CLOSE
Current Station
Personal Weather Station
Location: Mora, MN
Elevation: 1012 ft
Nearby Weather Stations
Active Advisory: Winter Weather Advisory

Elev 1012 ft 45.89 °N, 93.27 °W | Updated 57 minutes ago

Overcast
Overcast
8.0 °F
Feels Like -1 °F
N
5.0
Wind Variable Wind from South
Gusts 9.0 mph

Today
High -- | Low -- °F
--% Chance of Precip.
Yesterday
High -- | Low -- °F
Precip. -- in
7:30 AM 4:31 PM
Waxing Crescent, 37% visible
Pressure 30.26 in
Visibility 7.0 miles
Clouds Mostly Cloudy 1000 ft
Mostly Cloudy 1300 ft
Overcast 2400 ft
Windchill -1 °F
Dew Point -1.0 °F
Humidity 66%
Rainfall 0.00 in
Snow Depth Not available.
UV 0 out of 12
Pollen .10 out of 12
Air Quality Not available.
Flu Activity Not available.
METAR KROS 280555Z AUTO 17007KT 7SM BKN010 BKN013 OVC024 M13/M17 A3026 RMK AO2 T11311166 11126 21150 411261200

More Conditions Fewer Conditions

Pressure 30.26 in
Visibility 7.0 miles
Clouds Mostly Cloudy 1000 ft
Mostly Cloudy 1300 ft
Overcast 2400 ft
Windchill -1 °F
Dew Point -1.0 °F
Humidity 66%
Rainfall 0.00 in
Snow Depth Not available.
UV 0 out of 12
Pollen .10 out of 12
Air Quality Not available.
Flu Activity Not available.
METAR KROS 280555Z AUTO 17007KT 7SM BKN010 BKN013 OVC024 M13/M17 A3026 RMK AO2 T11311166 11126 21150 411261200

More Conditions Fewer Conditions

10-Day Weather Forecast

Almanac

Astronomy

Nov. 28, 2014 Rise Set
Actual Time
Civil Twilight
Nautical Twilight
Astronomical Twilight
Moon
Length of Visible Light
Length of Day
Tomorrow will be .
, % of the Moon is Illuminated

Today's Extremes

State Highs State Lows

Community

WunderPhotos

Upload Photos

1,774,197 photos uploaded!

WunderBlogs® & News

Nearby

Air Quality

  Air Quality AQ Index Pollutant
Not available.

Snow Depth

Station Depth Elevation

Earthquake Activity

City Distance Mag. Time & Date
Minimum magnitude displayed is 2.5.

Coastal Water Temperatures

Place Temperature

Nearby Weather Stations